createdAt,value
2018-01-25T00:08:30.873Z,18
2018-01-25T00:23:30.750Z,19.4
2018-01-25T00:38:30.976Z,17
2018-01-25T00:53:30.927Z,16.1
2018-01-25T01:13:31.040Z,15.7
2018-01-25T01:28:30.804Z,12.5
2018-01-25T01:43:30.799Z,14.4
2018-01-25T01:58:30.821Z,15.1
2018-01-25T02:18:30.840Z,12.9
2018-01-25T02:33:30.832Z,8.9
2018-01-25T03:08:30.854Z,9.7
2018-01-25T03:23:30.847Z,15.6
2018-01-25T03:38:40.873Z,17.5
2018-01-25T03:53:30.856Z,20.9
2018-01-25T04:28:40.926Z,48.2
2018-01-25T04:43:31.142Z,32.4
2018-01-25T05:03:30.901Z,34.5
2018-01-25T05:18:30.877Z,21.6
2018-01-25T05:33:31.169Z,33.2
2018-01-25T06:08:30.946Z,16.9
2018-01-25T06:23:31.092Z,15.6
2018-01-25T06:38:31.082Z,13.5
2018-01-25T06:58:31.015Z,16.8
2018-01-25T07:13:31.121Z,21.4
2018-01-25T07:28:31.195Z,27.3
2018-01-25T07:43:31.198Z,26.9
2018-01-25T08:03:31.067Z,27.4
2018-01-25T08:18:31.055Z,28.6
2018-01-25T08:33:31.183Z,27.5
2018-01-25T08:53:41.015Z,33.3
2018-01-25T09:08:31.058Z,29.7
2018-01-25T09:23:31.048Z,26.5
2018-01-25T09:38:31.150Z,29.1
2018-01-25T09:58:31.168Z,31.3
2018-01-25T10:13:31.159Z,27.5
2018-01-25T10:28:31.035Z,27.4
2018-01-25T10:48:31.281Z,23.3
2018-01-25T11:03:31.249Z,26
2018-01-25T11:18:31.285Z,26
2018-01-25T11:33:41.086Z,23.5
2018-01-25T11:53:31.109Z,27.4
2018-01-25T12:08:31.284Z,28.5
2018-01-25T12:23:31.249Z,23.7
2018-01-25T12:43:31.302Z,25.2
2018-01-25T12:58:31.255Z,26.7
2018-01-25T13:13:31.364Z,28.6
2018-01-25T13:28:31.325Z,32.1
2018-01-25T13:48:31.448Z,24.6
2018-01-25T14:05:05.990Z,28.5
2018-01-25T14:18:31.436Z,24.3
2018-01-25T14:38:31.491Z,26.6
2018-01-25T14:53:31.936Z,22.2
2018-01-25T15:43:36.885Z,27.6
2018-01-25T15:58:39.249Z,31.4
2018-01-25T16:13:32.039Z,30.1
2018-01-25T16:33:51.685Z,33
2018-01-25T16:48:48.918Z,38.3
2018-01-25T17:03:49.757Z,42.8
2018-01-25T17:18:49.487Z,46.5
2018-01-25T17:38:32.518Z,45.7
2018-01-25T17:53:37.496Z,42.5
2018-01-25T18:08:58.125Z,48.6
2018-01-25T18:29:01.615Z,41.2
2018-01-25T18:43:32.128Z,42.3
2018-01-25T18:58:33.316Z,33.1
2018-01-25T19:13:32.212Z,31
2018-01-25T19:33:32.263Z,38.1
2018-01-25T19:48:32.391Z,34.1
2018-01-25T20:03:49.962Z,32.3
2018-01-25T20:23:32.921Z,29.3
2018-01-25T20:38:46.450Z,27.3
2018-01-25T20:53:33.972Z,26.6
2018-01-25T21:08:32.215Z,24.1
2018-01-25T21:28:32.432Z,25.6
2018-01-25T21:43:32.735Z,23.9
2018-01-25T21:58:32.315Z,29
2018-01-25T22:18:33.609Z,43.9
2018-01-25T22:33:32.308Z,46.7
2018-01-25T22:48:32.322Z,45.6
2018-01-25T23:03:32.197Z,44
2018-01-25T23:38:42.325Z,40.3
2018-01-25T23:53:32.204Z,40.8
